Timeline UpdatesTrip UpdatesNews PostsPvt PostsTravel TipsAdmin PostsConv PostsFollowed PostsChat RequestsBlog PostsPNR Posts

Disclaimer
Search
 
 
Thu Apr 24, 2014 21:49:35 ISTHomeTrainsΣChainsAtlasPNRForumGalleryNewsFAQTripsMembersLoginFeedback
No Recent News for this Train
Other Trains in the News **new
Latest...
⇐ Return Journey: Train# 54824

54823/Jodhpur Hisar passenger (UnReserved)

Oct 10 2013 (4:47PM)
Change Departure Station:
Change Arrival Station:
Post a Train Travel TipPost a Train Travel Tip **new
Post a Comment/Question/Picture/VideoPost a Comment/Question/Picture/Video
Pantry/Catering
✕ NO Pantry Car
✕ NO Catering
RSA - Rake Sharing
Rake/Coach Composition
7 general , 2 slr , total 9 coach.
Loco
ABR WDM - 3A.
News    PNR    Forum    Time-Table    Availability    Fare Chart    Map    Arr/Dep History    Trips    Gallery    ΣChains    X/O    Timeline    
Travel Time: 1h 1m    4 halts    Distance: 40 km    Avg Speed: 39 km/hr
Type: Passenger
Zone: NWR/North Western
Departs @ 11:10 (Avg on time)
Platform# ???
SMTWTFS
Jodhpur Junction/JU 
Arrives @ 12:11 (Avg 28m late)
Platform# ???
SMTWTFS
Kheri Salwa/KSW 

4 halts. 5 intermediate Stations between Jodhpur Junction and Kheri Salwa

Show ALL intermediate Stations  Show Old Time-Table

#CodeStation NameX/OArrivesAvgDepartsAvgHaltPFDay#KmSpeedElevZoneAddress
1JU»Jodhpur Junction (5)»  -11:10+0--10.028241mNWRJodhpur, Rajasthan
2RKBRaikabagh Palace Junction (2)  11:15+1211:17+252m--12.338237mNWRJodhpur, Rajasthan
3BNOBanarX  11:36+2211:38+252m--114.262213mNWRBanar, Rajasthan
4JWLJajiwal  11:46+2511:48+292m--122.567228mNWRJodhpur, Rajasthan
5AASAsranadaX  11:56+3011:58+322m--131.342251mNWRState Highway 58, Rajasthan
6KSW•Kheri Salwa•  12:11+2812:13+292m--140.464269mNWRJajiwal, Rajasthan
7PPRPipar Road Junction  12:19+3012:21+322m--146.957272mNWRState Highway 58, Rajasthan
8SWFSathin Road  12:30+3212:32+342m--155.569284mNWRUMED, Rajasthan
9UMEDUmed  12:41+3512:43+362m--165.861308mNWRJodhpur, Rajasthan
10KXGKharia KhangarhX  12:53+3612:55+382m--176.033310mNWRKharia Khangar, Rajasthan
11GOTNGotan  13:08+3313:10+362m--183.159323mNWRGotan, Rajasthan
12JOMJogi Magra (1)X  13:20+3713:22+402m1192.931335mNWRNagaur, Rajasthan
13MTDMerta Road Junction (4)  13:42+3013:47+325m--1103.3116322mNWRPhalodi, Rajasthan
14KQWKheduliX  13:55+3613:57+362m--1118.717307mNWRRen, Rajasthan
15RENRen  14:04+3714:06+372m--1120.763307mNWRNagaur, Rajasthan
16JACJalsu  14:19+3614:21+372m--1134.448321mNWRNagaur, Rajasthan
17JACNJalsu NanakX  14:28+1914:30+192m--1140.017331mNWRREN, Rajasthan
18DNADegana Junction (4)  14:56+1714:59+273m--1147.375339mNWRDegana, Rajasthan
19KRCKiroda  15:09+3115:11+312m--1159.929351mNWRDegana, Rajasthan
20KHTUKhatu  15:37+1715:39+182m--1172.353359mNWRKhatu Khurd, Rajasthan
21CTKTChoti Khatu  15:45+1815:47+182m--1177.662338mNWRDegana, Rajasthan
22PWPirwa  16:00+1616:02+162m--1191.046337mNWRDegana, Rajasthan
23KKNAKhunkhuna  16:10+1616:12+152m--1197.263350mNWRState Highway 60, Rajasthan
24MBSKMarwar Balia  16:22+1516:24+152m--1207.656335mNWRMarwar, Rajasthan
25DIADidwana  16:30+1516:32+172m--1213.261342mNWRDidwana, Rajasthan
26SVOSanvrad  16:45+1716:47+172m--1226.463338mNWRDidwana, Rajasthan
27BLSDBalsamand  16:55+1416:57+142m--1234.864323mNWRDidwana, Rajasthan
28LAULadnun (1)  17:06+1517:08+152m--1244.335330mNWRNagaur District. 341306, Rajasthan
29JSHJaswantgarh  17:16+1317:18+132m--1249.050312mNWRSujangarh, Rajasthan
30SUJHSujangarh  17:24+1317:26+142m--1254.161318mNWRSujangarh, Rajasthan
31TLCTalchhapar  17:39+1417:41+142m--1267.470305mNWRSujangarh, Rajasthan
32PIHParhihara  17:52+1517:54+312m--1280.246312mNWRSujangarh, Rajasthan
33LOHALohaX  18:09+418:11+42m--1291.713318mNWRRatangarh, Rajasthan
34RTGHRatangarh JunctionX  18:50+519:00+410m--1300.072309mNWRRatangarh, Rajasthan
35MIOMolisar  19:14+519:15+61m--1316.960310mNWRChuru, Rajasthan
36SMNNShri Makri Nath Nagar  19:21+619:22+61m--1323.039307mNWRChuru, Rajasthan
37JOHJuharpura  19:27+619:28+61m--1326.268302mNWRState Highway 69, Rajasthan
38DEPDepalsar  19:36+719:38+72m--1335.238292mNWRChuru, Rajasthan
39CURChuru Junction (3)  19:50+520:00+510m--1342.880288mNWRChuru Junction, Rajasthan
40ASLUAslu  20:11+920:13+82m--1357.453284mNWRNational Highway 65, Rajasthan
41SRSLSirsala20:23+620:24+61m--1366.353275mNWRNational Highway 65, Rajasthan
42DKXDudhwakharaX  20:30+620:31+71m--1371.656262mNWRNational Highway 65, Rajasthan
43HYLHadyal  20:45+520:46+61m--1384.756255mNWRMDR 97, Rajasthan
44DKWADokwa  20:54+620:55+61m--1392.251251mNWRNational Highway 65, Rajasthan
45SDLPSadulpur Junction  21:05+521:10+65m--1400.640239mNWRRajgarh, Rajasthan
46SURPSuratpura  21:16+721:17+71m--1404.670239mNWRNational Highway 65, Rajasthan
47JUPJhunpa  21:31+621:32+61m--1421.078225mNWRDist. Bhiwani 127046, Haryana
48SWNISiwani  21:47+721:49+62m--1440.556210mNWRNational Highway 65, Haryana
49CRWCharaud  22:01+622:02+61m--1451.634212mNWRNational Highway 65, Haryana
50HSRHisar Junction (6)  22:35-3---1470.5-215mNWRHisar, Haryana
Scroll to Top
Scroll to Bottom